Time;durP1;ratioP1;P1;durP2;ratioP2;P2;SDS_P1;SDS_P2;PMS_P1;PMS_P2;Temp;Humidity;BMP_temperature;BMP_pressure;BME280_temperature;BME280_humidity;BME280_pressure;Samples;Min_cycle;Max_cycle;Signal;HPM_P1;HPM_P2
2021/05/10 00:01:11;;;;;;;7.35;5.18;;;17.70;99.90;;;;;;5087360;28;20209;-71
2021/05/10 00:03:37;;;;;;;6.90;5.10;;;17.70;99.90;;;;;;5088612;28;20202;-71
2021/05/10 00:06:04;;;;;;;9.20;5.10;;;17.70;99.90;;;;;;5081402;28;20564;-72
2021/05/10 00:08:31;;;;;;;10.15;5.28;;;17.70;99.90;;;;;;5069523;28;20206;-70
2021/05/10 00:10:58;;;;;;;8.20;5.63;;;17.70;99.90;;;;;;5087110;28;20220;-71
2021/05/10 00:13:25;;;;;;;8.68;5.97;;;17.70;99.90;;;;;;5088609;28;20220;-73
2021/05/10 00:15:52;;;;;;;11.73;6.10;;;17.60;99.90;;;;;;5087846;28;20281;-71
2021/05/10 00:18:19;;;;;;;9.73;6.25;;;17.60;99.90;;;;;;5083282;28;20914;-72
2021/05/10 00:20:48;;;;;;;12.05;6.00;;;17.70;99.90;;;;;;5088794;28;20673;-71
2021/05/10 00:23:16;;;;;;;8.23;5.47;;;17.70;99.90;;;;;;5068722;28;20197;-71
2021/05/10 00:25:44;;;;;;;10.45;6.22;;;17.70;99.90;;;;;;5087559;28;20946;-73
2021/05/10 00:28:10;;;;;;;7.18;6.45;;;17.70;99.90;;;;;;5086299;28;20205;-70
2021/05/10 00:30:37;;;;;;;9.35;6.97;;;17.70;99.90;;;;;;5068088;28;20230;-70
2021/05/10 00:33:04;;;;;;;9.95;7.05;;;17.70;99.90;;;;;;5086403;28;20498;-72
2021/05/10 00:35:31;;;;;;;9.15;7.15;;;17.60;99.90;;;;;;5082860;28;20202;-71
2021/05/10 00:37:58;;;;;;;10.63;7.75;;;17.60;99.90;;;;;;5085508;28;20210;-71
2021/05/10 00:40:27;;;;;;;11.77;7.75;;;17.60;99.90;;;;;;5085343;28;20603;-71
2021/05/10 00:42:55;;;;;;;10.05;7.72;;;17.60;99.90;;;;;;5085039;28;20197;-71
2021/05/10 00:45:22;;;;;;;13.93;7.72;;;17.60;99.90;;;;;;5086041;28;20254;-72
2021/05/10 00:47:48;;;;;;;10.82;7.90;;;17.50;99.90;;;;;;5084431;28;20206;-71
2021/05/10 00:50:16;;;;;;;15.60;8.27;;;17.50;99.90;;;;;;5085030;28;20237;-70
2021/05/10 00:52:42;;;;;;;11.60;8.65;;;17.50;99.90;;;;;;5083813;28;20293;-71
2021/05/10 00:55:10;;;;;;;16.52;9.60;;;17.50;99.90;;;;;;5086128;28;20245;-72
2021/05/10 00:57:40;;;;;;;13.90;10.00;;;17.50;99.90;;;;;;5082327;28;20198;-71
2021/05/10 01:00:09;;;;;;;12.50;8.52;;;17.50;99.90;;;;;;5085003;28;20281;-72
2021/05/10 01:02:36;;;;;;;13.88;9.20;;;17.50;99.90;;;;;;5063760;28;20206;-71
2021/05/10 01:05:04;;;;;;;11.65;8.95;;;17.50;99.90;;;;;;5068363;28;20722;-72
2021/05/10 01:07:31;;;;;;;12.93;9.82;;;17.50;99.90;;;;;;5080947;28;20201;-71
2021/05/10 01:09:57;;;;;;;12.70;9.77;;;17.60;99.90;;;;;;5082710;28;20218;-70
2021/05/10 01:12:24;;;;;;;13.30;9.60;;;17.60;99.90;;;;;;5082026;28;20198;-71
2021/05/10 01:14:50;;;;;;;13.02;9.80;;;17.60;99.90;;;;;;5081568;28;20559;-71
2021/05/10 01:17:18;;;;;;;13.27;9.65;;;17.60;99.90;;;;;;5083721;28;20570;-71
2021/05/10 01:19:45;;;;;;;14.25;10.07;;;17.60;99.90;;;;;;5098768;28;20201;-71
2021/05/10 01:22:12;;;;;;;13.98;8.70;;;17.60;99.90;;;;;;5080355;28;20240;-72
2021/05/10 01:24:39;;;;;;;10.13;8.55;;;17.60;99.90;;;;;;5086137;28;20250;-71
2021/05/10 01:27:06;;;;;;;13.63;9.50;;;17.60;99.90;;;;;;5086098;28;20316;-70
2021/05/10 01:29:33;;;;;;;12.50;9.05;;;17.60;99.90;;;;;;5086831;28;20249;-73
2021/05/10 01:32:00;;;;;;;13.10;9.23;;;17.50;99.90;;;;;;5081142;28;21247;-72
2021/05/10 01:34:26;;;;;;;12.55;9.00;;;17.50;99.90;;;;;;5068601;28;20209;-71
2021/05/10 01:36:52;;;;;;;23.48;9.60;;;17.50;99.90;;;;;;5065081;28;20726;-71
2021/05/10 01:39:19;;;;;;;22.45;10.10;;;17.50;99.90;;;;;;5086594;28;20707;-69
2021/05/10 01:41:46;;;;;;;13.32;7.97;;;17.40;99.90;;;;;;5084108;28;20206;-71
2021/05/10 01:44:13;;;;;;;11.15;7.53;;;17.30;99.90;;;;;;5085302;28;20820;-71
2021/05/10 01:46:39;;;;;;;10.52;8.02;;;17.20;99.90;;;;;;5084922;28;20213;-71
2021/05/10 01:49:06;;;;;;;12.77;8.85;;;17.00;99.90;;;;;;5081931;28;23147;-71
2021/05/10 01:51:32;;;;;;;13.95;8.93;;;17.00;99.90;;;;;;5086185;28;20193;-72
2021/05/10 01:53:58;;;;;;;16.70;8.98;;;16.90;99.90;;;;;;5083272;28;20197;-71
2021/05/10 01:56:25;;;;;;;16.02;8.07;;;16.80;99.90;;;;;;5083700;28;20198;-70
2021/05/10 01:58:53;;;;;;;12.23;8.63;;;16.80;99.90;;;;;;5081810;28;20255;-72
2021/05/10 02:01:20;;;;;;;14.50;8.88;;;16.70;99.90;;;;;;5085283;28;20225;-70
2021/05/10 02:03:47;;;;;;;14.20;8.65;;;16.70;99.90;;;;;;5085481;28;20233;-71
2021/05/10 02:06:13;;;;;;;13.88;9.10;;;16.70;99.90;;;;;;5079479;28;20215;-70
2021/05/10 02:08:40;;;;;;;10.05;8.32;;;16.70;99.90;;;;;;5079026;28;20200;-71
2021/05/10 02:11:06;;;;;;;17.25;9.40;;;16.80;99.90;;;;;;5083694;28;20267;-71
2021/05/10 02:13:33;;;;;;;12.65;9.57;;;16.80;99.90;;;;;;5069193;28;20205;-71
2021/05/10 02:16:02;;;;;;;14.93;9.27;;;16.90;99.90;;;;;;5082629;28;20598;-71
2021/05/10 02:18:30;;;;;;;12.60;9.65;;;16.90;99.90;;;;;;5083329;28;20198;-71
2021/05/10 02:20:57;;;;;;;13.68;9.57;;;16.90;99.90;;;;;;5086767;28;20273;-72
2021/05/10 02:23:26;;;;;;;12.55;9.82;;;17.00;99.90;;;;;;5090158;28;20674;-72
2021/05/10 02:25:54;;;;;;;17.42;10.60;;;17.00;99.90;;;;;;5088242;28;20236;-70
2021/05/10 02:28:23;;;;;;;13.95;10.07;;;17.00;99.90;;;;;;5087787;28;20255;-72
2021/05/10 02:30:50;;;;;;;19.77;10.27;;;17.00;99.90;;;;;;5089325;28;20275;-71
2021/05/10 02:33:19;;;;;;;18.40;10.45;;;17.00;99.90;;;;;;5085995;28;20574;-71
2021/05/10 02:35:47;;;;;;;15.63;9.98;;;17.00;99.90;;;;;;5088340;28;20193;-71
2021/05/10 02:38:14;;;;;;;18.80;10.68;;;16.90;99.90;;;;;;5085652;28;20684;-71
2021/05/10 02:40:41;;;;;;;15.50;10.40;;;16.90;99.90;;;;;;5088580;28;20198;-72
2021/05/10 02:43:08;;;;;;;15.05;9.98;;;16.90;99.90;;;;;;5087200;28;20204;-71
2021/05/10 02:45:35;;;;;;;19.17;10.75;;;16.90;99.90;;;;;;5085518;28;20605;-72
2021/05/10 02:48:02;;;;;;;14.88;10.82;;;16.90;99.90;;;;;;5083371;28;20670;-71
2021/05/10 02:50:29;;;;;;;15.90;10.73;;;16.90;99.90;;;;;;5083693;28;20218;-72
2021/05/10 02:52:56;;;;;;;15.40;10.73;;;16.90;99.90;;;;;;5088012;28;20673;-71
2021/05/10 02:55:22;;;;;;;16.30;10.70;;;16.90;99.90;;;;;;5085759;28;20202;-70
2021/05/10 02:57:50;;;;;;;13.48;10.10;;;16.90;99.90;;;;;;5088124;28;20198;-71
2021/05/10 03:00:19;;;;;;;16.00;10.93;;;16.90;99.90;;;;;;5069011;28;20220;-71
2021/05/10 03:02:45;;;;;;;14.73;10.90;;;16.80;99.90;;;;;;5085213;28;20216;-72
2021/05/10 03:05:13;;;;;;;16.60;10.50;;;16.80;99.90;;;;;;5068879;28;20209;-72
2021/05/10 03:07:41;;;;;;;15.25;10.77;;;16.80;99.90;;;;;;5080632;28;20194;-72
2021/05/10 03:10:10;;;;;;;16.55;11.18;;;16.80;99.90;;;;;;5087635;28;20213;-71
2021/05/10 03:12:37;;;;;;;17.38;11.35;;;16.70;99.90;;;;;;5085477;28;20730;-71
2021/05/10 03:15:05;;;;;;;15.73;11.18;;;16.70;99.90;;;;;;5088258;28;20255;-71
2021/05/10 03:17:31;;;;;;;19.55;10.70;;;16.70;99.90;;;;;;5067473;28;20205;-71
2021/05/10 03:19:57;;;;;;;16.52;11.43;;;16.70;99.90;;;;;;5087568;28;20191;-72
2021/05/10 03:22:24;;;;;;;14.93;11.43;;;16.70;99.90;;;;;;5086999;28;20284;-71
2021/05/10 03:24:51;;;;;;;16.35;11.68;;;16.70;99.90;;;;;;5087045;28;20217;-71
2021/05/10 03:27:18;;;;;;;16.63;12.02;;;16.70;99.90;;;;;;5086441;28;20225;-70
2021/05/10 03:29:44;;;;;;;14.65;12.05;;;16.70;99.90;;;;;;5087598;28;20225;-71
2021/05/10 03:32:10;;;;;;;16.58;11.52;;;16.60;99.90;;;;;;5086516;28;20674;-70
2021/05/10 03:34:37;;;;;;;17.95;12.15;;;16.60;99.90;;;;;;5086971;28;20837;-71
2021/05/10 03:37:03;;;;;;;18.98;12.18;;;16.50;99.90;;;;;;5084017;28;20243;-71
2021/05/10 03:39:30;;;;;;;16.23;12.32;;;16.50;99.90;;;;;;5100328;28;20194;-71
2021/05/10 03:41:57;;;;;;;19.60;13.60;;;16.50;99.90;;;;;;5084025;28;20198;-71
2021/05/10 03:44:23;;;;;;;17.63;13.20;;;16.50;99.90;;;;;;5087924;28;20202;-70
2021/05/10 03:46:50;;;;;;;19.55;12.50;;;16.60;99.90;;;;;;5066055;28;20220;-73
2021/05/10 03:49:16;;;;;;;17.63;13.05;;;16.60;99.90;;;;;;5083499;28;20264;-71
2021/05/10 03:51:43;;;;;;;19.83;13.77;;;16.60;99.90;;;;;;5084051;28;20259;-70
2021/05/10 03:54:09;;;;;;;22.83;14.30;;;16.60;99.90;;;;;;5085801;28;20217;-71
2021/05/10 03:56:36;;;;;;;24.58;13.98;;;16.60;99.90;;;;;;5084034;28;20205;-71
2021/05/10 03:59:03;;;;;;;16.88;13.75;;;16.60;99.90;;;;;;5086161;28;20648;-71
2021/05/10 04:01:30;;;;;;;22.17;13.48;;;16.50;99.90;;;;;;5066708;28;20206;-70
2021/05/10 04:04:04;;;;;;;18.80;13.85;;;16.50;99.90;;;;;;5085346;28;20194;-71
2021/05/10 04:06:50;;;;;;;17.88;13.65;;;16.50;99.90;;;;;;5083079;28;20422;-70
2021/05/10 04:14:45;;;;;;;18.02;13.13;;;17.00;99.90;;;;;;5086912;28;20602;-69
2021/05/10 04:17:12;;;;;;;17.00;13.60;;;16.80;99.90;;;;;;5082468;28;20436;-70
2021/05/10 04:19:38;;;;;;;17.20;13.40;;;17.10;99.90;;;;;;5086159;28;20470;-71
2021/05/10 04:22:05;;;;;;;14.83;12.63;;;17.30;99.90;;;;;;5083689;28;20422;-70
2021/05/10 04:24:31;;;;;;;17.27;13.20;;;17.40;99.90;;;;;;5067084;28;21078;-71
2021/05/10 04:26:58;;;;;;;16.40;12.35;;;17.50;99.90;;;;;;5083599;28;20432;-71
2021/05/10 04:29:25;;;;;;;16.45;12.52;;;17.50;99.90;;;;;;5083832;28;20558;-70
2021/05/10 04:31:52;;;;;;;15.68;12.23;;;17.60;99.90;;;;;;5065179;28;20437;-70
2021/05/10 04:34:18;;;;;;;15.50;11.80;;;17.70;99.90;;;;;;5064994;28;20422;-70
2021/05/10 04:36:45;;;;;;;14.52;11.23;;;17.70;99.90;;;;;;5066895;28;20426;-69
2021/05/10 04:39:11;;;;;;;17.17;11.07;;;17.70;99.90;;;;;;5099182;28;20454;-70
2021/05/10 04:41:37;;;;;;;14.70;10.30;;;17.80;99.90;;;;;;5084496;28;20417;-70
2021/05/10 04:44:04;;;;;;;11.77;8.80;;;17.80;99.90;;;;;;5083550;28;20433;-70
2021/05/10 04:46:31;;;;;;;12.43;8.40;;;17.80;99.90;;;;;;5080012;28;20789;-69
2021/05/10 04:48:58;;;;;;;11.82;7.60;;;17.80;99.90;;;;;;5083183;28;20460;-70
2021/05/10 04:51:24;;;;;;;12.30;7.28;;;17.80;99.90;;;;;;5064587;28;20430;-71
2021/05/10 04:53:51;;;;;;;10.73;6.60;;;17.80;99.90;;;;;;5084603;28;20422;-71
2021/05/10 04:56:17;;;;;;;9.00;6.75;;;17.80;99.90;;;;;;5064916;28;20432;-69
2021/05/10 04:58:44;;;;;;;11.05;6.43;;;17.90;99.90;;;;;;5083947;28;20435;-71
2021/05/10 05:01:10;;;;;;;11.05;5.90;;;17.80;99.90;;;;;;5081578;28;20484;-72
2021/05/10 05:03:36;;;;;;;9.57;5.40;;;17.80;99.90;;;;;;5081671;28;20773;-72
2021/05/10 05:06:04;;;;;;;10.15;4.30;;;17.70;99.90;;;;;;5081081;28;20447;-70
2021/05/10 05:08:30;;;;;;;10.43;3.75;;;17.60;99.90;;;;;;5096984;28;20426;-72
2021/05/10 05:10:57;;;;;;;8.77;2.85;;;17.20;99.90;;;;;;5064356;28;20429;-71
2021/05/10 05:13:25;;;;;;;8.75;2.20;;;16.90;99.90;;;;;;5083305;28;20439;-71
2021/05/10 05:15:51;;;;;;;5.97;1.85;;;16.60;99.90;;;;;;5082734;28;20421;-71
2021/05/10 05:18:18;;;;;;;12.90;2.10;;;16.30;99.90;;;;;;5064580;28;20453;-72
2021/05/10 05:20:44;;;;;;;;;;;16.10;99.90;;;;;;5082619;28;20297;-73
2021/05/10 05:23:18;;;;;;;;;;;16.00;99.90;;;;;;5082754;28;20287;-73
2021/05/10 05:25:44;;;;;;;;;;;15.90;99.90;;;;;;5089028;28;19931;-72
2021/05/10 05:28:11;;;;;;;;;;;15.90;99.90;;;;;;5088037;28;19930;-71
2021/05/10 05:30:37;;;;;;;9.90;1.80;;;16.00;99.90;;;;;;5101588;28;20442;-72
2021/05/10 05:33:04;;;;;;;9.82;1.35;;;16.00;99.90;;;;;;5088163;28;20258;-73
2021/05/10 05:35:30;;;;;;;6.53;1.42;;;15.70;99.90;;;;;;5088174;28;20209;-72
2021/05/10 05:37:57;;;;;;;11.15;1.60;;;15.50;99.90;;;;;;5068208;28;20206;-71
2021/05/10 05:40:24;;;;;;;6.43;1.58;;;15.40;99.90;;;;;;5086026;28;20567;-71
2021/05/10 05:42:51;;;;;;;12.15;1.52;;;15.30;99.90;;;;;;5069328;28;20217;-70
2021/05/10 05:45:17;;;;;;;9.05;2.05;;;15.20;99.90;;;;;;5086547;28;20722;-72
2021/05/10 05:47:44;;;;;;;13.18;1.70;;;15.00;99.90;;;;;;5088433;28;20665;-76
2021/05/10 05:50:11;;;;;;;6.40;1.58;;;14.90;99.90;;;;;;5085594;28;20225;-70
2021/05/10 05:52:37;;;;;;;8.82;1.90;;;14.80;99.90;;;;;;5087879;28;20194;-72
2021/05/10 05:55:04;;;;;;;10.70;2.40;;;14.70;99.90;;;;;;5090337;28;20704;-69
2021/05/10 05:57:32;;;;;;;14.25;2.30;;;14.70;99.90;;;;;;5090808;28;20656;-70
2021/05/10 06:00:01;;;;;;;8.57;1.90;;;14.70;99.90;;;;;;5093086;28;20653;-72
2021/05/10 06:02:28;;;;;;;7.13;2.00;;;14.70;99.90;;;;;;5090281;28;20201;-71
2021/05/10 06:04:54;;;;;;;7.45;2.22;;;14.70;99.90;;;;;;5092363;28;20206;-72
2021/05/10 06:07:21;;;;;;;7.70;2.35;;;14.70;99.90;;;;;;5091884;28;20745;-71
2021/05/10 06:09:48;;;;;;;5.47;2.67;;;14.70;99.90;;;;;;5092755;28;20247;-72
2021/05/10 06:12:14;;;;;;;6.88;2.80;;;14.70;99.90;;;;;;5091412;28;20201;-73
2021/05/10 06:14:42;;;;;;;7.25;3.10;;;14.80;99.90;;;;;;5090531;28;20194;-71
2021/05/10 06:17:10;;;;;;;5.25;3.05;;;14.80;99.90;;;;;;5091475;28;20666;-71
2021/05/10 06:19:37;;;;;;;5.72;2.60;;;14.80;99.90;;;;;;5091355;28;20197;-72
2021/05/10 06:22:04;;;;;;;5.68;2.85;;;14.90;99.90;;;;;;5092151;28;20194;-72
2021/05/10 06:24:30;;;;;;;5.88;2.55;;;14.90;99.90;;;;;;5091865;28;20263;-71
2021/05/10 06:26:56;;;;;;;2.80;2.28;;;14.90;99.90;;;;;;5071790;28;20229;-72
2021/05/10 06:29:23;;;;;;;6.25;2.13;;;14.90;99.90;;;;;;5092437;28;20285;-70
2021/05/10 06:31:50;;;;;;;7.05;2.30;;;14.90;99.90;;;;;;5091079;28;20727;-71
2021/05/10 06:34:17;;;;;;;3.58;2.40;;;14.90;99.90;;;;;;5073998;28;20226;-71
2021/05/10 06:36:43;;;;;;;4.68;2.35;;;14.90;99.90;;;;;;5091328;28;20560;-72
2021/05/10 06:39:09;;;;;;;3.25;2.40;;;15.00;99.90;;;;;;5092026;28;20206;-71
2021/05/10 06:41:36;;;;;;;4.60;2.55;;;15.00;99.90;;;;;;5092473;28;20197;-73
2021/05/10 06:44:03;;;;;;;3.88;2.20;;;15.00;99.90;;;;;;5092421;28;20590;-73
2021/05/10 06:46:29;;;;;;;3.70;2.28;;;15.00;99.90;;;;;;5092393;28;20259;-72
2021/05/10 06:48:56;;;;;;;8.13;2.42;;;15.00;99.90;;;;;;5073536;28;20197;-70
2021/05/10 06:51:23;;;;;;;2.72;2.13;;;15.00;99.90;;;;;;5090253;28;20213;-71
2021/05/10 06:53:49;;;;;;;6.05;2.65;;;15.10;99.90;;;;;;5091778;28;20280;-71
2021/05/10 06:56:15;;;;;;;5.97;2.75;;;15.10;99.90;;;;;;5092262;28;20198;-71
2021/05/10 06:58:42;;;;;;;5.07;2.42;;;15.10;99.90;;;;;;5091884;28;20197;-72
2021/05/10 07:01:09;;;;;;;4.15;2.45;;;15.20;99.90;;;;;;5091310;28;20281;-71
2021/05/10 07:03:35;;;;;;;7.50;2.75;;;15.20;99.90;;;;;;5074171;28;20212;-70
2021/05/10 07:06:02;;;;;;;3.35;2.63;;;15.20;99.90;;;;;;5090592;28;20294;-71
2021/05/10 07:08:29;;;;;;;5.70;3.58;;;15.20;99.90;;;;;;5074616;28;20220;-71
2021/05/10 07:10:55;;;;;;;6.85;4.28;;;15.20;99.90;;;;;;5088818;28;20209;-70
2021/05/10 07:13:22;;;;;;;6.63;4.90;;;15.20;99.90;;;;;;5089386;28;20284;-70
2021/05/10 07:15:49;;;;;;;6.55;4.80;;;15.30;99.90;;;;;;5089702;28;20205;-74
2021/05/10 07:18:16;;;;;;;7.85;5.43;;;15.20;99.90;;;;;;5091634;28;20194;-71
2021/05/10 07:20:43;;;;;;;8.00;5.20;;;15.30;99.90;;;;;;5090022;28;20193;-73
2021/05/10 07:23:13;;;;;;;11.02;5.70;;;15.30;99.90;;;;;;5087400;28;20585;-71
2021/05/10 07:25:44;;;;;;;5.72;2.28;;;15.30;99.90;;;;;;5092019;28;20943;-72
2021/05/10 07:28:11;;;;;;;4.15;1.85;;;15.20;99.90;;;;;;5070418;28;20214;-72
2021/05/10 07:30:39;;;;;;;3.38;1.83;;;15.00;99.90;;;;;;5091071;28;20267;-72
2021/05/10 07:33:05;;;;;;;12.05;2.30;;;14.80;99.90;;;;;;5089134;28;20564;-74
2021/05/10 07:35:32;;;;;;;4.72;1.92;;;14.70;99.90;;;;;;5091510;28;20229;-72
2021/05/10 07:37:59;;;;;;;8.65;2.80;;;14.50;99.90;;;;;;5091497;28;20222;-72
2021/05/10 07:40:28;;;;;;;9.02;2.63;;;14.40;99.90;;;;;;5089672;28;20200;-73
2021/05/10 07:42:55;;;;;;;6.60;2.70;;;14.30;99.90;;;;;;5073024;28;20680;-71
2021/05/10 07:45:22;;;;;;;8.63;3.20;;;14.20;99.90;;;;;;5086393;28;20197;-72
2021/05/10 07:47:51;;;;;;;12.43;3.47;;;14.10;99.90;;;;;;5090029;28;20197;-72
2021/05/10 07:50:18;;;;;;;19.08;4.07;;;14.10;99.90;;;;;;5091060;28;20259;-71
2021/05/10 07:52:45;;;;;;;18.92;4.40;;;14.10;99.90;;;;;;5090567;28;20206;-72
2021/05/10 07:55:12;;;;;;;17.52;4.60;;;14.00;99.90;;;;;;5090754;28;20699;-72
2021/05/10 07:57:39;;;;;;;18.85;4.00;;;14.00;99.90;;;;;;5090270;28;20229;-72
2021/05/10 08:00:07;;;;;;;15.73;4.32;;;14.00;99.90;;;;;;5091860;28;20608;-72
2021/05/10 08:02:44;;;;;;;11.88;4.45;;;14.00;99.90;;;;;;5088737;28;20585;-71
2021/05/10 08:05:11;;;;;;;15.93;4.60;;;13.90;99.90;;;;;;5089897;28;20189;-70
2021/05/10 08:07:38;;;;;;;17.25;4.68;;;13.90;99.90;;;;;;5091432;28;20242;-71
2021/05/10 08:10:06;;;;;;;18.00;4.47;;;13.90;99.90;;;;;;5089882;28;20221;-71
2021/05/10 08:12:33;;;;;;;16.95;5.07;;;13.90;99.90;;;;;;5106128;28;20700;-72
2021/05/10 08:15:01;;;;;;;19.02;4.85;;;13.90;99.90;;;;;;5082076;28;20343;-70
2021/05/10 08:17:29;;;;;;;16.45;5.07;;;14.00;99.90;;;;;;5082896;28;20197;-72
2021/05/10 08:19:56;;;;;;;18.73;5.40;;;14.00;99.90;;;;;;5084520;28;20202;-72
2021/05/10 08:22:22;;;;;;;13.65;5.00;;;14.00;99.90;;;;;;5085977;28;20285;-70
2021/05/10 08:24:49;;;;;;;16.88;5.90;;;14.00;99.90;;;;;;5085459;28;20206;-70
2021/05/10 08:27:15;;;;;;;14.32;5.60;;;14.00;99.90;;;;;;5082573;28;20279;-69
2021/05/10 08:29:42;;;;;;;14.23;5.72;;;14.00;99.90;;;;;;5084249;28;20198;-73
2021/05/10 08:32:09;;;;;;;13.30;5.45;;;14.00;99.90;;;;;;5080567;28;20292;-70
2021/05/10 08:34:35;;;;;;;12.82;4.30;;;14.00;99.90;;;;;;5085600;28;20209;-71
2021/05/10 08:37:02;;;;;;;9.80;4.22;;;14.10;99.90;;;;;;5079797;28;20202;-69
2021/05/10 08:39:29;;;;;;;11.25;3.88;;;14.00;99.90;;;;;;5085416;28;20286;-70
2021/05/10 08:41:55;;;;;;;9.02;3.50;;;14.00;99.90;;;;;;5069453;28;20210;-72
2021/05/10 08:44:22;;;;;;;9.55;3.92;;;14.00;99.90;;;;;;5086334;28;20680;-70
2021/05/10 08:46:49;;;;;;;10.48;3.80;;;14.00;99.90;;;;;;5085459;28;20255;-71
2021/05/10 08:49:20;;;;;;;14.45;4.10;;;14.00;99.90;;;;;;5085620;28;20717;-70
2021/05/10 08:51:47;;;;;;;11.70;4.30;;;14.00;99.90;;;;;;5083679;28;20218;-69
2021/05/10 08:54:18;;;;;;;12.25;3.88;;;14.00;99.90;;;;;;5086664;28;20201;-70
2021/05/10 08:56:45;;;;;;;9.60;3.83;;;14.10;99.90;;;;;;5070189;28;20216;-74
2021/05/10 08:59:12;;;;;;;12.25;4.00;;;14.00;99.90;;;;;;5084929;28;20205;-71
2021/05/10 09:01:50;;;;;;;7.18;4.05;;;14.10;99.90;;;;;;5065705;28;20999;-70
2021/05/10 09:04:18;;;;;;;11.75;4.15;;;14.00;99.90;;;;;;5085479;28;20202;-73
2021/05/10 09:06:45;;;;;;;12.65;4.47;;;14.10;99.90;;;;;;5067870;28;20208;-72
2021/05/10 09:09:12;;;;;;;12.70;4.53;;;14.10;99.90;;;;;;5084350;28;20284;-71
2021/05/10 09:11:55;;;;;;;9.18;4.20;;;14.20;99.90;;;;;;5079089;28;20231;-72
2021/05/10 09:14:33;;;;;;;11.07;4.72;;;14.20;99.90;;;;;;5071411;28;20209;-71
2021/05/10 09:17:00;;;;;;;10.63;3.72;;;14.20;99.90;;;;;;5089525;28;20695;-71
2021/05/10 09:19:45;;;;;;;6.68;2.30;;;14.30;99.90;;;;;;5087129;28;20201;-72
2021/05/10 09:22:12;;;;;;;7.43;2.38;;;14.30;99.90;;;;;;5088971;28;20258;-72
2021/05/10 09:24:50;;;;;;;7.32;1.75;;;14.30;99.90;;;;;;5090703;28;20201;-71
2021/05/10 09:27:20;;;;;;;13.55;2.58;;;14.30;99.90;;;;;;5085775;28;20287;-73
2021/05/10 09:29:47;;;;;;;8.38;1.85;;;14.40;99.90;;;;;;5088648;28;20225;-72
2021/05/10 09:32:29;;;;;;;5.20;1.70;;;14.40;99.90;;;;;;5071803;28;20724;-72
2021/05/10 09:35:22;;;;;;;6.60;1.83;;;14.40;99.90;;;;;;5088937;28;20202;-71
2021/05/10 09:37:57;;;;;;;8.85;2.22;;;14.40;99.90;;;;;;5088784;28;20202;-71
2021/05/10 09:40:27;;;;;;;6.55;2.38;;;14.50;99.90;;;;;;5087814;28;20189;-71
2021/05/10 09:42:55;;;;;;;6.53;1.77;;;14.50;99.90;;;;;;5087908;28;20205;-71
2021/05/10 09:45:41;;;;;;;11.35;2.10;;;14.50;99.90;;;;;;5088082;28;20259;-71
2021/05/10 09:48:10;;;;;;;6.20;1.90;;;14.60;99.90;;;;;;5070472;28;20247;-70
2021/05/10 09:50:40;;;;;;;9.88;1.92;;;14.70;99.90;;;;;;5087588;28;20210;-71
2021/05/10 09:53:10;;;;;;;5.90;1.90;;;14.70;99.90;;;;;;5088928;28;20270;-72
2021/05/10 09:55:44;;;;;;;10.93;1.77;;;14.70;99.90;;;;;;5086944;28;20669;-71
2021/05/10 09:58:11;;;;;;;6.72;1.60;;;14.80;99.90;;;;;;5069416;28;20201;-71
2021/05/10 10:00:39;;;;;;;8.68;2.10;;;14.80;99.90;;;;;;5085957;28;20260;-72
2021/05/10 10:03:06;;;;;;;10.02;1.70;;;14.80;99.90;;;;;;5069175;28;20613;-74
2021/05/10 10:05:33;;;;;;;9.45;2.00;;;14.80;99.90;;;;;;5087521;28;20628;-73
2021/05/10 10:08:02;;;;;;;10.43;2.10;;;14.80;99.90;;;;;;5102312;28;20210;-71
2021/05/10 10:10:28;;;;;;;7.05;1.65;;;14.80;99.90;;;;;;5086424;28;20736;-73
2021/05/10 10:12:54;;;;;;;13.48;2.05;;;14.80;99.90;;;;;;5088305;28;20278;-73
2021/05/10 10:15:21;;;;;;;11.60;2.20;;;14.90;99.90;;;;;;5086450;28;20772;-71
2021/05/10 10:17:48;;;;;;;9.48;2.00;;;14.90;99.90;;;;;;5088931;28;20288;-73
2021/05/10 10:20:14;;;;;;;7.57;2.35;;;14.90;99.90;;;;;;5089027;28;20591;-72
2021/05/10 10:22:42;;;;;;;10.95;2.00;;;15.00;99.90;;;;;;5088619;28;20197;-73
2021/05/10 10:25:10;;;;;;;10.60;2.20;;;15.00;99.90;;;;;;5089060;28;20216;-73
2021/05/10 10:27:37;;;;;;;11.13;2.20;;;15.00;99.90;;;;;;5088043;28;20644;-72
2021/05/10 10:30:05;;;;;;;13.27;2.58;;;15.00;99.90;;;;;;5086694;28;20221;-72
2021/05/10 10:32:32;;;;;;;15.35;2.25;;;15.00;99.90;;;;;;5070673;28;20197;-73
2021/05/10 10:35:00;;;;;;;12.43;2.33;;;15.00;99.90;;;;;;5088156;28;20198;-72
2021/05/10 10:37:27;;;;;;;9.23;2.45;;;15.00;99.90;;;;;;5087055;28;20255;-72
2021/05/10 10:39:56;;;;;;;12.15;2.25;;;15.00;99.90;;;;;;5087714;28;20280;-71
2021/05/10 10:42:27;;;;;;;14.23;2.38;;;15.00;99.90;;;;;;5091300;28;20681;-71
2021/05/10 10:44:55;;;;;;;8.68;2.10;;;15.10;99.90;;;;;;5092294;28;20206;-71
2021/05/10 10:47:44;;;;;;;13.25;2.20;;;15.10;99.90;;;;;;5091501;28;20658;-72
2021/05/10 10:50:11;;;;;;;12.63;2.25;;;15.20;99.90;;;;;;5091759;28;20660;-73
2021/05/10 10:52:48;;;;;;;15.15;2.38;;;15.20;99.90;;;;;;5090081;28;20201;-72
2021/05/10 10:55:17;;;;;;;9.98;2.35;;;15.30;99.90;;;;;;5074084;28;20209;-72
2021/05/10 10:57:45;;;;;;;10.05;1.90;;;15.40;99.90;;;;;;5072539;28;20197;-72
2021/05/10 11:00:15;;;;;;;7.25;1.88;;;15.50;99.90;;;;;;5091665;28;20485;-72
2021/05/10 11:02:44;;;;;;;9.75;1.90;;;15.60;99.90;;;;;;5091214;28;20198;-73
2021/05/10 11:05:20;;;;;;;11.07;1.85;;;15.60;99.90;;;;;;5089320;28;20293;-73
2021/05/10 11:07:49;;;;;;;13.30;2.00;;;15.70;99.90;;;;;;5092335;28;20284;-71
2021/05/10 11:10:43;;;;;;;10.85;2.28;;;15.80;99.90;;;;;;5088667;28;20262;-72
2021/05/10 11:13:31;;;;;;;9.77;1.83;;;15.90;99.90;;;;;;5090518;28;20576;-71
2021/05/10 11:15:59;;;;;;;7.38;1.80;;;15.90;99.90;;;;;;5091899;28;20255;-70
2021/05/10 11:18:36;;;;;;;12.95;2.25;;;16.00;99.90;;;;;;5090637;28;20197;-72
2021/05/10 11:21:04;;;;;;;6.93;2.22;;;16.00;99.90;;;;;;5088817;28;20194;-70
2021/05/10 11:23:32;;;;;;;13.38;2.33;;;16.10;99.90;;;;;;5073832;28;20206;-72
2021/05/10 11:25:59;;;;;;;9.80;2.10;;;16.20;99.90;;;;;;5089943;28;20244;-69
2021/05/10 11:28:44;;;;;;;8.88;2.10;;;16.20;99.90;;;;;;5098802;28;20263;-71
2021/05/10 11:31:17;;;;;;;8.40;2.40;;;16.30;99.90;;;;;;5085577;28;21012;-70
2021/05/10 11:34:08;;;;;;;8.27;2.28;;;16.40;99.90;;;;;;5071723;28;20235;-71
2021/05/10 11:36:37;;;;;;;12.43;2.20;;;16.50;99.90;;;;;;5070062;28;20205;-71
2021/05/10 11:39:06;;;;;;;9.18;2.30;;;16.50;99.50;;;;;;5087069;28;20601;-70
2021/05/10 11:41:34;;;;;;;9.07;2.50;;;16.60;99.50;;;;;;5084589;28;20252;-70
2021/05/10 11:44:03;;;;;;;8.45;3.00;;;16.60;99.30;;;;;;5081978;28;20198;-70
2021/05/10 11:46:38;;;;;;;10.48;2.35;;;16.80;99.20;;;;;;5084105;28;20210;-72
2021/05/10 11:49:05;;;;;;;10.38;2.50;;;16.80;98.80;;;;;;5067226;28;20213;-70
2021/05/10 11:51:35;;;;;;;8.50;2.40;;;16.80;98.70;;;;;;5063385;28;20241;-72
2021/05/10 11:54:04;;;;;;;13.18;2.70;;;16.80;98.60;;;;;;5051641;28;20921;-72
2021/05/10 11:56:33;;;;;;;9.65;2.28;;;16.80;98.60;;;;;;5066479;28;20259;-70
2021/05/10 11:59:08;;;;;;;12.57;2.70;;;16.80;98.70;;;;;;5064141;28;20209;-70
2021/05/10 12:01:38;;;;;;;9.90;2.60;;;16.80;98.80;;;;;;5069882;28;20201;-71
2021/05/10 12:04:17;;;;;;;11.45;2.60;;;16.80;98.30;;;;;;5064283;28;20198;-71
2021/05/10 12:06:44;;;;;;;11.00;2.38;;;16.80;98.10;;;;;;5062841;28;20222;-70
2021/05/10 12:09:35;;;;;;;13.50;2.92;;;16.70;98.00;;;;;;5065392;28;20206;-70
2021/05/10 12:12:03;;;;;;;10.55;2.92;;;16.60;97.90;;;;;;5064527;28;20213;-70
2021/05/10 12:14:29;;;;;;;10.55;2.85;;;16.60;97.90;;;;;;5064302;28;20214;-71
2021/05/10 12:17:10;;;;;;;11.35;2.70;;;16.50;97.90;;;;;;5074358;28;20201;-70
2021/05/10 12:19:57;;;;;;;12.32;3.00;;;16.50;98.20;;;;;;5082213;28;20206;-71
2021/05/10 12:22:24;;;;;;;11.05;3.25;;;16.50;98.70;;;;;;5081358;28;20216;-71
2021/05/10 12:25:08;;;;;;;11.60;3.10;;;16.50;99.10;;;;;;5064124;28;20739;-71
2021/05/10 12:27:44;;;;;;;11.02;3.33;;;16.60;99.40;;;;;;5064236;28;20238;-71
2021/05/10 12:30:20;;;;;;;12.40;4.07;;;16.70;99.70;;;;;;5063010;28;20217;-70
2021/05/10 12:32:50;;;;;;;15.38;3.15;;;16.90;99.80;;;;;;5075753;28;20197;-71
2021/05/10 12:35:19;;;;;;;12.63;3.35;;;17.00;99.70;;;;;;5093446;28;20221;-71
2021/05/10 12:37:47;;;;;;;10.23;3.00;;;17.20;99.80;;;;;;5082275;28;20280;-71
2021/05/10 12:40:16;;;;;;;14.10;3.25;;;17.30;99.50;;;;;;5087129;28;20230;-71
2021/05/10 12:42:43;;;;;;;10.80;3.00;;;17.40;98.90;;;;;;5080865;28;20688;-71
2021/05/10 12:45:11;;;;;;;13.00;3.40;;;17.40;98.70;;;;;;5075792;28;20194;-71
2021/05/10 12:47:46;;;;;;;8.80;3.50;;;17.40;98.40;;;;;;5086023;28;20209;-71
2021/05/10 12:50:32;;;;;;;12.85;2.92;;;17.40;98.20;;;;;;5086296;28;20577;-70
2021/05/10 12:53:02;;;;;;;12.07;3.15;;;17.30;98.00;;;;;;5082555;28;20707;-71